EW0719 Weather Reports


Display with metric or nautical units.
time (UTC)temp
F
wind
direction
speed
MPH
gust
MPH
rain 1hr
in
rain 24hr
in
rain mn
in
humidity
%
barometer
mb
20201031040211 55 360 1.0 5.0 0.00 0.00 0.00 43 1017.9
20201031034625 55 360 3.0 6.0 0.00 0.00 0.00 42 1017.9
20201031033202 56 360 1.0 5.0 0.00 0.00 0.00 41 1017.8
20201031032008 57 360 2.0 5.0 0.00 0.00 0.00 39 1017.9
20201031030215 57 360 2.0 7.0 0.00 0.00 0.00 38 1018.1
20201031024744 58 360 5.0 9.0 0.00 0.00 0.00 37 1017.9
20201031023235 58 360 6.0 10.0 0.00 0.00 0.00 37 1017.8
20201031021646 58 360 5.0 8.0 0.00 0.00 0.00 36 1017.7
20201031020253 59 360 4.0 8.0 0.00 0.00 0.00 36 1017.7
20201031014653 59 134 2.0 7.0 0.00 0.00 0.00 35 1017.7
20201031013132 60 142 2.0 7.0 0.00 0.00 0.00 35 1017.7
20201031011754 60 360 2.0 7.0 0.00 0.00 0.00 34 1017.5
20201031010150 61 121 3.0 7.0 0.00 0.00 0.00 33 1017.2
20201031004659 62 360 3.0 8.0 0.00 0.00 0.00 32 1017.2
20201031003141 63 140 4.0 9.0 0.00 0.00 0.00 31 1017.1
20201031001715 65 140 4.0 7.0 0.00 0.00 0.00 29 1017.1
20201031000253 67 360 1.0 6.0 0.00 0.00 0.00 27 1017.0
20201030234615 68 153 3.0 9.0 0.00 0.00 0.00 26 1016.9
20201030233120 70 360 3.0 9.0 0.00 0.00 0.00 24 1016.9
20201030231611 72 360 0.0 5.0 0.00 0.00 0.00 22 1016.8
20201030230109 73 360 0.0 6.0 0.00 0.00 0.00 21 1016.9
20201030224653 75 360 0.0 3.0 0.00 0.00 0.00 21 1016.9
20201030223110 76 360 0.0 7.0 0.00 0.00 0.00 20 1017.1
20201030221636 76 246 0.0 4.0 0.00 0.00 0.00 20 1017.3
20201030220224 77 360 0.0 6.0 0.00 0.00 0.00 19 1017.4
20201030214624 77 360 0.0 9.0 0.00 0.00 0.00 19 1017.6
20201030213222 76 360 0.0 7.0 0.00 0.00 0.00 20 1017.8
20201030211623 76 360 1.0 12.0 0.00 0.00 0.00 19 1017.8
20201030210122 76 360 0.0 11.0 0.00 0.00 0.00 19 1017.9
20201030204603 75 360 1.0 8.0 0.00 0.00 0.00 19 1018.1
20201030203117 76 360 0.0 10.0 0.00 0.00 0.00 19 1018.4
20201030201647 76 264 0.0 11.0 0.00 0.00 0.00 19 1018.7
20201030200105 76 263 0.0 6.0 0.00 0.00 0.00 19 1019.0
20201030194530 75 360 0.0 4.0 0.00 0.00 0.00 20 1019.4
20201030193046 73 360 0.0 7.0 0.00 0.00 0.00 23 1019.5
20201030191525 72 360 1.0 10.0 0.00 0.00 0.00 23 1019.8
20201030190034 71 360 1.0 8.0 0.00 0.00 0.00 24 1020.1
20201030184536 71 360 1.0 7.0 0.00 0.00 0.00 24 1020.5
20201030183020 70 360 0.0 9.0 0.00 0.00 0.00 26 1021.1
20201030181518 70 360 1.0 6.0 0.00 0.00 0.00 26 1021.2
20201030180149 68 123 0.0 6.0 0.00 0.00 0.00 27 1021.7
20201030174730 68 360 0.0 7.0 0.00 0.00 0.00 28 1021.9
20201030173207 68 360 0.0 5.0 0.00 0.00 0.00 28 1022.3
20201030171747 67 360 0.0 6.0 0.00 0.00 0.00 29 1022.5
20201030170248 66 360 0.0 7.0 0.00 0.00 0.00 30 1022.8
20201030164723 65 146 2.0 6.0 0.00 0.00 0.00 30 1023.1
20201030163115 64 191 1.0 6.0 0.00 0.00 0.00 32 1023.4
20201030161633 62 360 0.0 4.0 0.00 0.00 0.00 34 1023.3
20201030160202 61 360 1.0 5.0 0.00 0.00 0.00 36 1023.6
20201030154540 59 152 0.0 4.0 0.00 0.00 0.00 38 1023.8
20201030153058 57 182 1.0 5.0 0.00 0.00 0.00 42 1023.9
20201030151534 54 140 0.0 0.0 0.00 0.00 0.00 48 1023.9
20201030150116 52 360 0.0 0.0 0.00 0.00 0.00 51 1023.8
20201030144545 50 360 0.0 0.0 0.00 0.00 0.00 54 1023.8
20201030143021 47 360 0.0 0.0 0.00 0.00 0.00 58 1023.7
20201030141654 45 140 0.0 0.0 0.00 0.00 0.00 61 1023.6
20201030140244 43 360 0.0 0.0 0.00 0.00 0.00 62 1023.5
20201030134726 43 140 0.0 0.0 0.00 0.00 0.00 61 1023.4
20201030133242 43 360 0.0 0.0 0.00 0.00 0.00 61 1023.3
20201030131613 44 360 0.0 0.0 0.00 0.00 0.00 60 1023.3
20201030130208 44 360 0.0 0.0 0.00 0.00 0.00 61 1023.1
20201030124646 43 360 0.0 0.0 0.00 0.00 0.00 62 1022.9
20201030123125 42 140 0.0 0.0 0.00 0.00 0.00 64 1022.9
20201030121629 42 139 0.0 0.0 0.00 0.00 0.00 64 1023.0
20201030120106 41 360 0.0 0.0 0.00 0.00 0.00 65 1023.0
20201030114642 41 139 0.0 0.0 0.00 0.00 0.00 65 1022.9
20201030113116 41 138 0.0 0.0 0.00 0.00 0.00 66 1022.9
20201030111700 41 139 0.0 0.0 0.00 0.00 0.00 66 1022.8
20201030110137 41 360 0.0 0.0 0.00 0.00 0.00 63 1022.6
20201030104616 42 360 0.0 0.0 0.00 0.00 0.00 62 1022.5
20201030103130 42 360 0.0 0.0 0.00 0.00 0.00 62 1022.3
20201030101822 42 360 0.0 0.0 0.00 0.00 0.00 62 1022.3
20201030100106 43 360 0.0 0.0 0.00 0.00 0.00 60 1022.4
20201030094632 43 360 0.0 0.0 0.00 0.00 0.00 62 1022.5
20201030093137 42 139 0.0 0.0 0.00 0.00 0.00 63 1022.6
20201030091708 43 360 0.0 0.0 0.00 0.00 0.00 61 1022.8
20201030090040 43 360 0.0 0.0 0.00 0.00 0.00 60 1022.8
20201030084606 43 360 0.0 0.0 0.00 0.00 0.00 61 1022.8
20201030083057 44 360 0.0 0.0 0.00 0.00 0.00 60 1022.9
20201030081606 44 360 0.0 0.0 0.00 0.00 0.00 60 1023.0
20201030080112 44 360 0.0 0.0 0.00 0.00 0.00 60 1023.2
20201030074545 44 360 0.0 0.0 0.00 0.00 0.00 59 1023.2
20201030073104 44 139 0.0 0.0 0.00 0.00 0.00 58 1023.1
20201030071610 45 139 0.0 0.0 0.00 0.00 0.00 56 1023.1
20201030070043 46 139 0.0 0.0 0.00 0.00 0.00 56 1023.1
20201030064559 46 138 0.0 0.0 0.00 0.00 0.00 56 1023.3
20201030063042 45 138 0.0 0.0 0.00 0.00 0.00 58 1023.5
20201030061547 45 138 0.0 0.0 0.00 0.00 0.00 58 1023.6
20201030060055 45 138 0.0 0.0 0.00 0.00 0.00 56 1023.7
20201030054550 46 138 0.0 0.0 0.00 0.00 0.00 56 1023.6
20201030053101 46 138 0.0 0.0 0.00 0.00 0.00 55 1023.8
20201030051547 46 360 0.0 0.0 0.00 0.00 0.00 55 1023.8
20201030050025 46 139 0.0 0.0 0.00 0.00 0.00 55 1023.9
20201030044548 46 138 0.0 0.0 0.00 0.00 0.00 56 1023.9
20201030043031 46 138 0.0 0.0 0.00 0.00 0.00 54 1023.8
20201030041518 46 138 0.0 0.0 0.00 0.00 0.00 54 1023.7